ETHF/FRZ METAR and TAF weather

Enter ICAO airport designator
Station Type Date Time Source
ETHF METAR 2019/02/21 15:20 UTC NOAA

ETHF 211520Z 30010KT 9999 FEW028 SCT038 BKN047 11/05 Q1026 BLU BLU


Station Type Date Time Source
ETHF Decoded METAR 2019/02/21 15:20 UTC NOAA

Fritzlar, Germany (ETHF) 51-07N 009-17E 181M
Feb 21, 2019 - 10:20 AM EST / 2019.02.21 1520 UTC
Wind: from the WNW (300 degrees) at 12 MPH (10 KT):0
Visibility: greater than 7 mile(s):0
Sky conditions: mostly cloudy
Temperature: 51 F (11 C)
Dew Point: 41 F (5 C)
Relative Humidity: 66%
Pressure (altimeter): 30.30 in. Hg (1026 hPa)
ob: ETHF 211520Z 30010KT 9999 FEW028 SCT038 BKN047 11/05 Q1026 BLU BLU
cycle: 15

Station Type Date Time Source
ETHF TAF 2018/05/18 05:37 UTC NOAA

TAF ETHF 180407Z 1805/1818 35006KT 9999 NSW BKN020
TEMPO 1805/1808 33005KT 9999 NSW BKN012
BECMG 1809/1811 36008KT 9999 NSW SCT030 BKN180


Example: see airport list